sensor_id;sensor_type;location;lat;lon;timestamp;P1;durP1;ratioP1;P2;durP2;ratioP2
15776;SDS011;7989;51.198;6.676;2024-03-29T00:01:14;4.15;;;1.08;;
15776;SDS011;7989;51.198;6.676;2024-03-29T00:03:39;1.83;;;0.80;;
15776;SDS011;7989;51.198;6.676;2024-03-29T00:06:05;4.30;;;1.23;;
15776;SDS011;7989;51.198;6.676;2024-03-29T00:08:31;4.72;;;1.13;;
15776;SDS011;7989;51.198;6.676;2024-03-29T00:10:57;3.10;;;1.23;;
15776;SDS011;7989;51.198;6.676;2024-03-29T00:13:24;3.35;;;1.75;;
15776;SDS011;7989;51.198;6.676;2024-03-29T00:15:51;2.50;;;0.98;;
15776;SDS011;7989;51.198;6.676;2024-03-29T00:18:17;2.00;;;1.05;;
15776;SDS011;7989;51.198;6.676;2024-03-29T00:20:43;3.95;;;1.20;;
15776;SDS011;7989;51.198;6.676;2024-03-29T00:23:09;1.30;;;1.02;;
15776;SDS011;7989;51.198;6.676;2024-03-29T00:25:35;2.60;;;1.25;;
15776;SDS011;7989;51.198;6.676;2024-03-29T00:28:01;5.03;;;1.15;;
15776;SDS011;7989;51.198;6.676;2024-03-29T00:30:28;4.63;;;1.27;;
15776;SDS011;7989;51.198;6.676;2024-03-29T00:32:54;2.65;;;1.30;;
15776;SDS011;7989;51.198;6.676;2024-03-29T00:35:20;2.90;;;1.20;;
15776;SDS011;7989;51.198;6.676;2024-03-29T00:37:46;2.80;;;1.30;;
15776;SDS011;7989;51.198;6.676;2024-03-29T00:40:12;2.75;;;0.95;;
15776;SDS011;7989;51.198;6.676;2024-03-29T00:42:38;4.68;;;1.17;;
15776;SDS011;7989;51.198;6.676;2024-03-29T00:45:04;1.95;;;1.00;;
15776;SDS011;7989;51.198;6.676;2024-03-29T00:47:31;2.78;;;1.65;;
15776;SDS011;7989;51.198;6.676;2024-03-29T00:49:58;2.63;;;1.17;;
15776;SDS011;7989;51.198;6.676;2024-03-29T00:52:23;2.40;;;1.05;;
15776;SDS011;7989;51.198;6.676;2024-03-29T00:54:49;2.72;;;1.05;;
15776;SDS011;7989;51.198;6.676;2024-03-29T00:57:15;1.67;;;0.80;;
15776;SDS011;7989;51.198;6.676;2024-03-29T00:59:41;1.92;;;0.82;;
15776;SDS011;7989;51.198;6.676;2024-03-29T01:02:07;3.13;;;1.20;;
15776;SDS011;7989;51.198;6.676;2024-03-29T01:04:35;2.63;;;1.10;;
15776;SDS011;7989;51.198;6.676;2024-03-29T01:07:01;3.05;;;1.58;;
15776;SDS011;7989;51.198;6.676;2024-03-29T01:09:27;3.97;;;1.30;;
15776;SDS011;7989;51.198;6.676;2024-03-29T01:11:53;3.53;;;1.70;;
15776;SDS011;7989;51.198;6.676;2024-03-29T01:14:19;4.05;;;1.65;;
15776;SDS011;7989;51.198;6.676;2024-03-29T01:16:44;2.15;;;1.27;;
15776;SDS011;7989;51.198;6.676;2024-03-29T01:19:10;4.20;;;1.92;;
15776;SDS011;7989;51.198;6.676;2024-03-29T01:21:38;3.40;;;1.70;;
15776;SDS011;7989;51.198;6.676;2024-03-29T01:24:04;3.90;;;2.22;;
15776;SDS011;7989;51.198;6.676;2024-03-29T01:26:30;4.43;;;2.28;;
15776;SDS011;7989;51.198;6.676;2024-03-29T01:28:56;3.35;;;2.25;;
15776;SDS011;7989;51.198;6.676;2024-03-29T01:31:21;5.57;;;2.00;;
15776;SDS011;7989;51.198;6.676;2024-03-29T01:33:48;3.83;;;1.80;;
15776;SDS011;7989;51.198;6.676;2024-03-29T01:36:14;2.90;;;1.90;;
15776;SDS011;7989;51.198;6.676;2024-03-29T01:38:41;3.08;;;1.40;;
15776;SDS011;7989;51.198;6.676;2024-03-29T01:41:07;2.80;;;1.58;;
15776;SDS011;7989;51.198;6.676;2024-03-29T01:43:33;3.15;;;1.67;;
15776;SDS011;7989;51.198;6.676;2024-03-29T01:46:00;2.85;;;1.48;;
15776;SDS011;7989;51.198;6.676;2024-03-29T01:48:27;4.05;;;1.02;;
15776;SDS011;7989;51.198;6.676;2024-03-29T01:50:55;3.25;;;1.13;;
15776;SDS011;7989;51.198;6.676;2024-03-29T01:53:23;1.75;;;1.10;;
15776;SDS011;7989;51.198;6.676;2024-03-29T01:55:52;3.00;;;0.90;;
15776;SDS011;7989;51.198;6.676;2024-03-29T01:58:20;1.92;;;1.08;;
15776;SDS011;7989;51.198;6.676;2024-03-29T02:00:49;2.03;;;0.80;;
15776;SDS011;7989;51.198;6.676;2024-03-29T02:03:18;2.58;;;0.88;;
15776;SDS011;7989;51.198;6.676;2024-03-29T02:05:45;3.50;;;1.20;;
15776;SDS011;7989;51.198;6.676;2024-03-29T02:08:13;3.20;;;1.20;;
15776;SDS011;7989;51.198;6.676;2024-03-29T02:10:40;3.63;;;1.13;;
15776;SDS011;7989;51.198;6.676;2024-03-29T02:13:09;2.38;;;1.17;;
15776;SDS011;7989;51.198;6.676;2024-03-29T02:15:36;4.43;;;1.60;;
15776;SDS011;7989;51.198;6.676;2024-03-29T02:18:03;3.53;;;1.30;;
15776;SDS011;7989;51.198;6.676;2024-03-29T02:20:30;4.10;;;1.30;;
15776;SDS011;7989;51.198;6.676;2024-03-29T02:23:00;3.45;;;1.55;;
15776;SDS011;7989;51.198;6.676;2024-03-29T02:25:30;1.92;;;1.00;;
15776;SDS011;7989;51.198;6.676;2024-03-29T02:27:57;3.60;;;1.08;;
15776;SDS011;7989;51.198;6.676;2024-03-29T02:30:26;2.15;;;1.10;;
15776;SDS011;7989;51.198;6.676;2024-03-29T02:32:54;2.65;;;1.27;;
15776;SDS011;7989;51.198;6.676;2024-03-29T02:35:20;3.30;;;1.40;;
15776;SDS011;7989;51.198;6.676;2024-03-29T02:37:47;1.88;;;0.90;;
15776;SDS011;7989;51.198;6.676;2024-03-29T02:40:14;2.58;;;1.25;;
15776;SDS011;7989;51.198;6.676;2024-03-29T02:42:42;1.77;;;1.10;;
15776;SDS011;7989;51.198;6.676;2024-03-29T02:45:09;2.42;;;1.13;;
15776;SDS011;7989;51.198;6.676;2024-03-29T02:47:36;2.83;;;1.42;;
15776;SDS011;7989;51.198;6.676;2024-03-29T02:50:03;2.20;;;1.08;;
15776;SDS011;7989;51.198;6.676;2024-03-29T02:52:29;3.70;;;1.08;;
15776;SDS011;7989;51.198;6.676;2024-03-29T02:54:56;2.72;;;0.93;;
15776;SDS011;7989;51.198;6.676;2024-03-29T02:57:22;3.60;;;0.90;;
15776;SDS011;7989;51.198;6.676;2024-03-29T02:59:50;3.70;;;0.90;;
15776;SDS011;7989;51.198;6.676;2024-03-29T03:02:15;2.85;;;0.85;;
15776;SDS011;7989;51.198;6.676;2024-03-29T03:04:42;3.45;;;1.05;;
15776;SDS011;7989;51.198;6.676;2024-03-29T03:07:08;1.70;;;0.75;;
15776;SDS011;7989;51.198;6.676;2024-03-29T03:09:52;1.52;;;0.75;;
15776;SDS011;7989;51.198;6.676;2024-03-29T03:12:37;1.95;;;1.08;;
15776;SDS011;7989;51.198;6.676;2024-03-29T03:15:05;2.75;;;1.05;;
15776;SDS011;7989;51.198;6.676;2024-03-29T03:17:32;1.20;;;0.90;;
15776;SDS011;7989;51.198;6.676;2024-03-29T03:19:59;2.88;;;1.30;;
15776;SDS011;7989;51.198;6.676;2024-03-29T03:22:25;3.38;;;1.38;;
15776;SDS011;7989;51.198;6.676;2024-03-29T03:24:52;4.88;;;1.70;;
15776;SDS011;7989;51.198;6.676;2024-03-29T03:27:18;2.47;;;1.30;;
15776;SDS011;7989;51.198;6.676;2024-03-29T03:29:44;3.22;;;1.50;;
15776;SDS011;7989;51.198;6.676;2024-03-29T03:32:12;3.78;;;1.70;;
15776;SDS011;7989;51.198;6.676;2024-03-29T03:34:39;3.20;;;1.45;;
15776;SDS011;7989;51.198;6.676;2024-03-29T03:37:05;2.42;;;1.58;;
15776;SDS011;7989;51.198;6.676;2024-03-29T03:39:32;2.28;;;1.30;;
15776;SDS011;7989;51.198;6.676;2024-03-29T03:41:57;5.32;;;1.40;;
15776;SDS011;7989;51.198;6.676;2024-03-29T03:44:24;2.92;;;1.13;;
15776;SDS011;7989;51.198;6.676;2024-03-29T03:46:50;2.90;;;1.17;;
15776;SDS011;7989;51.198;6.676;2024-03-29T03:49:18;2.20;;;1.15;;
15776;SDS011;7989;51.198;6.676;2024-03-29T03:51:44;2.10;;;1.25;;
15776;SDS011;7989;51.198;6.676;2024-03-29T03:54:10;2.78;;;1.00;;
15776;SDS011;7989;51.198;6.676;2024-03-29T03:56:36;2.13;;;1.20;;
15776;SDS011;7989;51.198;6.676;2024-03-29T03:59:03;2.63;;;1.23;;
15776;SDS011;7989;51.198;6.676;2024-03-29T04:01:29;3.13;;;0.98;;
15776;SDS011;7989;51.198;6.676;2024-03-29T04:03:56;3.92;;;1.38;;
15776;SDS011;7989;51.198;6.676;2024-03-29T04:06:23;2.22;;;0.98;;
15776;SDS011;7989;51.198;6.676;2024-03-29T04:08:49;3.42;;;1.30;;
15776;SDS011;7989;51.198;6.676;2024-03-29T04:11:15;2.22;;;0.98;;
15776;SDS011;7989;51.198;6.676;2024-03-29T04:13:42;2.47;;;0.98;;
15776;SDS011;7989;51.198;6.676;2024-03-29T04:16:10;1.88;;;0.98;;
15776;SDS011;7989;51.198;6.676;2024-03-29T04:18:37;2.40;;;1.27;;
15776;SDS011;7989;51.198;6.676;2024-03-29T04:21:03;2.47;;;1.15;;
15776;SDS011;7989;51.198;6.676;2024-03-29T04:23:32;2.95;;;1.45;;
15776;SDS011;7989;51.198;6.676;2024-03-29T04:25:58;1.52;;;1.02;;
15776;SDS011;7989;51.198;6.676;2024-03-29T04:28:25;2.50;;;1.05;;
15776;SDS011;7989;51.198;6.676;2024-03-29T04:30:52;1.75;;;0.82;;
15776;SDS011;7989;51.198;6.676;2024-03-29T04:33:19;1.90;;;1.08;;
15776;SDS011;7989;51.198;6.676;2024-03-29T04:35:52;3.55;;;1.27;;
15776;SDS011;7989;51.198;6.676;2024-03-29T04:38:21;4.28;;;1.60;;
15776;SDS011;7989;51.198;6.676;2024-03-29T04:40:51;1.80;;;1.02;;
15776;SDS011;7989;51.198;6.676;2024-03-29T04:43:19;2.30;;;1.27;;
15776;SDS011;7989;51.198;6.676;2024-03-29T04:45:47;2.50;;;1.20;;
15776;SDS011;7989;51.198;6.676;2024-03-29T04:48:14;2.65;;;1.65;;
15776;SDS011;7989;51.198;6.676;2024-03-29T04:50:41;5.03;;;1.10;;
15776;SDS011;7989;51.198;6.676;2024-03-29T04:53:08;4.22;;;1.42;;
15776;SDS011;7989;51.198;6.676;2024-03-29T04:55:35;3.10;;;1.17;;
15776;SDS011;7989;51.198;6.676;2024-03-29T04:58:03;3.47;;;1.23;;
15776;SDS011;7989;51.198;6.676;2024-03-29T05:00:30;5.00;;;1.67;;
15776;SDS011;7989;51.198;6.676;2024-03-29T05:02:57;2.47;;;1.13;;
15776;SDS011;7989;51.198;6.676;2024-03-29T05:05:23;5.95;;;1.42;;
15776;SDS011;7989;51.198;6.676;2024-03-29T05:07:50;2.50;;;1.23;;
15776;SDS011;7989;51.198;6.676;2024-03-29T05:10:17;2.17;;;1.25;;
15776;SDS011;7989;51.198;6.676;2024-03-29T05:12:44;3.72;;;1.67;;
15776;SDS011;7989;51.198;6.676;2024-03-29T05:15:12;3.05;;;1.13;;
15776;SDS011;7989;51.198;6.676;2024-03-29T05:17:40;2.55;;;1.17;;
15776;SDS011;7989;51.198;6.676;2024-03-29T05:20:07;2.38;;;1.10;;
15776;SDS011;7989;51.198;6.676;2024-03-29T05:22:35;4.20;;;1.40;;
15776;SDS011;7989;51.198;6.676;2024-03-29T05:25:02;4.90;;;1.30;;
15776;SDS011;7989;51.198;6.676;2024-03-29T05:27:29;2.28;;;1.27;;
15776;SDS011;7989;51.198;6.676;2024-03-29T05:29:56;2.65;;;1.45;;
15776;SDS011;7989;51.198;6.676;2024-03-29T05:32:24;2.28;;;1.42;;
15776;SDS011;7989;51.198;6.676;2024-03-29T05:34:51;4.00;;;1.73;;
15776;SDS011;7989;51.198;6.676;2024-03-29T05:37:18;2.78;;;1.30;;
15776;SDS011;7989;51.198;6.676;2024-03-29T05:39:45;5.50;;;1.30;;
15776;SDS011;7989;51.198;6.676;2024-03-29T05:42:12;3.05;;;1.17;;
15776;SDS011;7989;51.198;6.676;2024-03-29T05:44:39;4.35;;;1.35;;
15776;SDS011;7989;51.198;6.676;2024-03-29T05:47:06;5.05;;;1.38;;
15776;SDS011;7989;51.198;6.676;2024-03-29T05:49:34;2.05;;;1.10;;
15776;SDS011;7989;51.198;6.676;2024-03-29T05:52:00;3.50;;;1.40;;
15776;SDS011;7989;51.198;6.676;2024-03-29T05:54:27;2.83;;;1.25;;
15776;SDS011;7989;51.198;6.676;2024-03-29T05:56:54;3.25;;;1.60;;
15776;SDS011;7989;51.198;6.676;2024-03-29T05:59:21;1.85;;;1.15;;
15776;SDS011;7989;51.198;6.676;2024-03-29T06:01:48;3.30;;;1.25;;
15776;SDS011;7989;51.198;6.676;2024-03-29T06:04:13;4.07;;;1.25;;
15776;SDS011;7989;51.198;6.676;2024-03-29T06:06:45;2.92;;;1.10;;
15776;SDS011;7989;51.198;6.676;2024-03-29T06:09:12;1.50;;;1.15;;
15776;SDS011;7989;51.198;6.676;2024-03-29T06:11:38;3.60;;;1.40;;
15776;SDS011;7989;51.198;6.676;2024-03-29T06:14:05;3.03;;;1.10;;
15776;SDS011;7989;51.198;6.676;2024-03-29T06:16:49;1.75;;;0.98;;
15776;SDS011;7989;51.198;6.676;2024-03-29T06:19:33;3.55;;;1.40;;
15776;SDS011;7989;51.198;6.676;2024-03-29T06:22:02;3.17;;;1.25;;
15776;SDS011;7989;51.198;6.676;2024-03-29T06:24:29;4.40;;;1.75;;
15776;SDS011;7989;51.198;6.676;2024-03-29T06:26:57;3.08;;;1.20;;
15776;SDS011;7989;51.198;6.676;2024-03-29T06:29:24;3.50;;;1.30;;
15776;SDS011;7989;51.198;6.676;2024-03-29T06:31:51;4.00;;;1.45;;
15776;SDS011;7989;51.198;6.676;2024-03-29T06:34:18;2.60;;;1.48;;
15776;SDS011;7989;51.198;6.676;2024-03-29T06:36:44;3.78;;;1.65;;
15776;SDS011;7989;51.198;6.676;2024-03-29T06:39:13;2.83;;;1.15;;
15776;SDS011;7989;51.198;6.676;2024-03-29T06:41:40;3.92;;;1.35;;
15776;SDS011;7989;51.198;6.676;2024-03-29T06:44:06;4.05;;;1.33;;
15776;SDS011;7989;51.198;6.676;2024-03-29T06:46:33;4.68;;;1.85;;
15776;SDS011;7989;51.198;6.676;2024-03-29T06:49:00;2.42;;;1.30;;
15776;SDS011;7989;51.198;6.676;2024-03-29T06:51:27;3.05;;;1.40;;
15776;SDS011;7989;51.198;6.676;2024-03-29T06:53:54;3.17;;;1.70;;
15776;SDS011;7989;51.198;6.676;2024-03-29T06:56:22;2.63;;;1.13;;
15776;SDS011;7989;51.198;6.676;2024-03-29T06:58:49;2.13;;;1.23;;
15776;SDS011;7989;51.198;6.676;2024-03-29T07:01:16;1.98;;;1.25;;
15776;SDS011;7989;51.198;6.676;2024-03-29T07:03:43;4.97;;;1.63;;
15776;SDS011;7989;51.198;6.676;2024-03-29T07:06:10;4.13;;;1.55;;
15776;SDS011;7989;51.198;6.676;2024-03-29T07:08:37;3.67;;;1.20;;
15776;SDS011;7989;51.198;6.676;2024-03-29T07:11:03;1.85;;;1.45;;
15776;SDS011;7989;51.198;6.676;2024-03-29T07:13:32;3.00;;;1.20;;
15776;SDS011;7989;51.198;6.676;2024-03-29T07:15:58;2.78;;;1.40;;
15776;SDS011;7989;51.198;6.676;2024-03-29T07:18:25;2.25;;;1.17;;
15776;SDS011;7989;51.198;6.676;2024-03-29T07:20:52;3.15;;;1.52;;
15776;SDS011;7989;51.198;6.676;2024-03-29T07:23:20;6.47;;;2.15;;
15776;SDS011;7989;51.198;6.676;2024-03-29T07:25:56;1.50;;;1.20;;
15776;SDS011;7989;51.198;6.676;2024-03-29T07:28:24;2.97;;;1.33;;
15776;SDS011;7989;51.198;6.676;2024-03-29T07:30:52;3.08;;;1.33;;
15776;SDS011;7989;51.198;6.676;2024-03-29T07:33:19;2.95;;;1.20;;
15776;SDS011;7989;51.198;6.676;2024-03-29T07:35:48;3.03;;;1.52;;
15776;SDS011;7989;51.198;6.676;2024-03-29T07:38:15;1.83;;;1.27;;
15776;SDS011;7989;51.198;6.676;2024-03-29T07:40:43;2.53;;;1.60;;
15776;SDS011;7989;51.198;6.676;2024-03-29T07:43:10;1.73;;;1.20;;
15776;SDS011;7989;51.198;6.676;2024-03-29T07:45:39;2.33;;;1.05;;
15776;SDS011;7989;51.198;6.676;2024-03-29T07:48:09;1.58;;;1.00;;
15776;SDS011;7989;51.198;6.676;2024-03-29T07:50:38;4.38;;;1.77;;
15776;SDS011;7989;51.198;6.676;2024-03-29T07:53:05;3.00;;;1.38;;
15776;SDS011;7989;51.198;6.676;2024-03-29T07:55:31;4.35;;;1.50;;
15776;SDS011;7989;51.198;6.676;2024-03-29T07:57:58;2.17;;;1.45;;
15776;SDS011;7989;51.198;6.676;2024-03-29T08:00:25;2.08;;;1.40;;
15776;SDS011;7989;51.198;6.676;2024-03-29T08:02:52;3.58;;;1.52;;
15776;SDS011;7989;51.198;6.676;2024-03-29T08:05:21;2.28;;;1.27;;
15776;SDS011;7989;51.198;6.676;2024-03-29T08:07:48;2.63;;;1.60;;
15776;SDS011;7989;51.198;6.676;2024-03-29T08:10:14;2.67;;;1.60;;
15776;SDS011;7989;51.198;6.676;2024-03-29T08:12:41;1.77;;;0.93;;
15776;SDS011;7989;51.198;6.676;2024-03-29T08:15:08;1.95;;;1.42;;
15776;SDS011;7989;51.198;6.676;2024-03-29T08:17:35;2.65;;;1.70;;
15776;SDS011;7989;51.198;6.676;2024-03-29T08:20:02;3.13;;;1.50;;
15776;SDS011;7989;51.198;6.676;2024-03-29T08:22:31;2.03;;;1.60;;
15776;SDS011;7989;51.198;6.676;2024-03-29T08:24:58;2.25;;;1.30;;
15776;SDS011;7989;51.198;6.676;2024-03-29T08:27:25;4.78;;;2.03;;
15776;SDS011;7989;51.198;6.676;2024-03-29T08:29:52;2.92;;;1.85;;
15776;SDS011;7989;51.198;6.676;2024-03-29T08:32:19;2.30;;;1.30;;
15776;SDS011;7989;51.198;6.676;2024-03-29T08:34:46;2.55;;;1.75;;
15776;SDS011;7989;51.198;6.676;2024-03-29T08:37:13;2.78;;;1.77;;
15776;SDS011;7989;51.198;6.676;2024-03-29T08:39:41;2.38;;;1.92;;
15776;SDS011;7989;51.198;6.676;2024-03-29T08:42:08;2.42;;;1.60;;
15776;SDS011;7989;51.198;6.676;2024-03-29T08:44:36;4.18;;;1.60;;
15776;SDS011;7989;51.198;6.676;2024-03-29T08:47:03;2.72;;;1.65;;
15776;SDS011;7989;51.198;6.676;2024-03-29T08:49:30;2.45;;;1.70;;
15776;SDS011;7989;51.198;6.676;2024-03-29T08:51:57;2.30;;;1.55;;
15776;SDS011;7989;51.198;6.676;2024-03-29T08:54:27;2.38;;;1.40;;
15776;SDS011;7989;51.198;6.676;2024-03-29T08:56:55;4.38;;;1.50;;
15776;SDS011;7989;51.198;6.676;2024-03-29T08:59:22;1.40;;;1.30;;
15776;SDS011;7989;51.198;6.676;2024-03-29T09:01:49;2.70;;;1.42;;
15776;SDS011;7989;51.198;6.676;2024-03-29T09:04:17;1.85;;;1.65;;
15776;SDS011;7989;51.198;6.676;2024-03-29T09:06:45;4.38;;;1.20;;
15776;SDS011;7989;51.198;6.676;2024-03-29T09:09:12;1.73;;;1.20;;
15776;SDS011;7989;51.198;6.676;2024-03-29T09:11:39;2.42;;;1.40;;
15776;SDS011;7989;51.198;6.676;2024-03-29T09:14:07;3.03;;;1.10;;
15776;SDS011;7989;51.198;6.676;2024-03-29T09:16:34;2.47;;;1.20;;
15776;SDS011;7989;51.198;6.676;2024-03-29T09:19:01;2.45;;;1.55;;
15776;SDS011;7989;51.198;6.676;2024-03-29T09:21:29;3.42;;;1.70;;
15776;SDS011;7989;51.198;6.676;2024-03-29T09:23:56;4.10;;;1.70;;
15776;SDS011;7989;51.198;6.676;2024-03-29T09:26:23;4.63;;;1.73;;
15776;SDS011;7989;51.198;6.676;2024-03-29T09:28:50;4.03;;;1.95;;
15776;SDS011;7989;51.198;6.676;2024-03-29T09:31:18;4.07;;;1.95;;
15776;SDS011;7989;51.198;6.676;2024-03-29T09:33:45;3.28;;;1.70;;
15776;SDS011;7989;51.198;6.676;2024-03-29T09:36:17;1.90;;;1.50;;
15776;SDS011;7989;51.198;6.676;2024-03-29T09:38:46;2.28;;;1.30;;
15776;SDS011;7989;51.198;6.676;2024-03-29T09:41:13;1.67;;;1.40;;
15776;SDS011;7989;51.198;6.676;2024-03-29T09:43:41;2.75;;;1.50;;
15776;SDS011;7989;51.198;6.676;2024-03-29T09:46:11;1.75;;;1.20;;
15776;SDS011;7989;51.198;6.676;2024-03-29T09:48:39;3.00;;;1.10;;
15776;SDS011;7989;51.198;6.676;2024-03-29T09:51:07;2.63;;;0.98;;
15776;SDS011;7989;51.198;6.676;2024-03-29T09:53:34;0.80;;;0.80;;
15776;SDS011;7989;51.198;6.676;2024-03-29T09:56:02;2.38;;;0.95;;
15776;SDS011;7989;51.198;6.676;2024-03-29T09:58:30;2.35;;;0.95;;
15776;SDS011;7989;51.198;6.676;2024-03-29T10:00:57;2.05;;;0.70;;
15776;SDS011;7989;51.198;6.676;2024-03-29T10:03:24;0.98;;;0.77;;
15776;SDS011;7989;51.198;6.676;2024-03-29T10:05:56;1.50;;;0.80;;
15776;SDS011;7989;51.198;6.676;2024-03-29T10:08:23;2.15;;;0.95;;
15776;SDS011;7989;51.198;6.676;2024-03-29T10:10:51;1.48;;;0.77;;
15776;SDS011;7989;51.198;6.676;2024-03-29T10:13:20;1.73;;;0.82;;
15776;SDS011;7989;51.198;6.676;2024-03-29T10:15:48;1.80;;;0.80;;
15776;SDS011;7989;51.198;6.676;2024-03-29T10:18:16;1.45;;;0.75;;
15776;SDS011;7989;51.198;6.676;2024-03-29T10:20:45;3.80;;;0.90;;
15776;SDS011;7989;51.198;6.676;2024-03-29T10:23:13;0.82;;;0.63;;
15776;SDS011;7989;51.198;6.676;2024-03-29T10:25:42;2.08;;;0.80;;
15776;SDS011;7989;51.198;6.676;2024-03-29T10:28:09;1.30;;;0.68;;
15776;SDS011;7989;51.198;6.676;2024-03-29T10:30:37;2.08;;;0.93;;
15776;SDS011;7989;51.198;6.676;2024-03-29T10:33:05;1.42;;;0.50;;
15776;SDS011;7989;51.198;6.676;2024-03-29T10:35:31;2.70;;;0.70;;
15776;SDS011;7989;51.198;6.676;2024-03-29T10:38:01;1.90;;;0.70;;
15776;SDS011;7989;51.198;6.676;2024-03-29T10:40:30;1.38;;;0.80;;
15776;SDS011;7989;51.198;6.676;2024-03-29T10:42:57;1.63;;;0.65;;
15776;SDS011;7989;51.198;6.676;2024-03-29T10:45:25;1.23;;;0.70;;
15776;SDS011;7989;51.198;6.676;2024-03-29T10:47:53;0.77;;;0.55;;
15776;SDS011;7989;51.198;6.676;2024-03-29T10:50:20;1.40;;;0.60;;
15776;SDS011;7989;51.198;6.676;2024-03-29T10:52:48;1.45;;;1.15;;
15776;SDS011;7989;51.198;6.676;2024-03-29T10:55:16;2.35;;;0.70;;
15776;SDS011;7989;51.198;6.676;2024-03-29T10:57:44;1.13;;;0.60;;
15776;SDS011;7989;51.198;6.676;2024-03-29T11:00:14;1.35;;;0.77;;
15776;SDS011;7989;51.198;6.676;2024-03-29T11:02:48;1.17;;;0.68;;
15776;SDS011;7989;51.198;6.676;2024-03-29T11:05:16;0.55;;;0.40;;
15776;SDS011;7989;51.198;6.676;2024-03-29T11:07:44;1.48;;;0.93;;
15776;SDS011;7989;51.198;6.676;2024-03-29T11:10:15;1.58;;;0.68;;
15776;SDS011;7989;51.198;6.676;2024-03-29T11:12:53;1.98;;;0.68;;
15776;SDS011;7989;51.198;6.676;2024-03-29T11:15:29;2.70;;;0.93;;
15776;SDS011;7989;51.198;6.676;2024-03-29T11:17:56;0.75;;;0.60;;
15776;SDS011;7989;51.198;6.676;2024-03-29T11:20:24;0.77;;;0.70;;
15776;SDS011;7989;51.198;6.676;2024-03-29T11:23:00;0.88;;;0.47;;
15776;SDS011;7989;51.198;6.676;2024-03-29T11:25:37;1.23;;;0.55;;
15776;SDS011;7989;51.198;6.676;2024-03-29T11:28:10;1.42;;;0.50;;
15776;SDS011;7989;51.198;6.676;2024-03-29T11:30:40;1.70;;;0.90;;
15776;SDS011;7989;51.198;6.676;2024-03-29T11:33:08;0.80;;;0.60;;
15776;SDS011;7989;51.198;6.676;2024-03-29T11:35:53;1.10;;;0.80;;
15776;SDS011;7989;51.198;6.676;2024-03-29T11:38:20;2.42;;;0.77;;
15776;SDS011;7989;51.198;6.676;2024-03-29T11:40:53;0.88;;;0.85;;
15776;SDS011;7989;51.198;6.676;2024-03-29T11:43:21;1.02;;;0.63;;
15776;SDS011;7989;51.198;6.676;2024-03-29T11:45:48;1.25;;;0.60;;
15776;SDS011;7989;51.198;6.676;2024-03-29T11:48:20;0.93;;;0.50;;
15776;SDS011;7989;51.198;6.676;2024-03-29T11:50:51;1.95;;;0.93;;
15776;SDS011;7989;51.198;6.676;2024-03-29T11:53:18;4.60;;;0.98;;
15776;SDS011;7989;51.198;6.676;2024-03-29T11:55:46;1.48;;;0.85;;
15776;SDS011;7989;51.198;6.676;2024-03-29T11:58:13;1.55;;;0.60;;
15776;SDS011;7989;51.198;6.676;2024-03-29T12:00:42;3.22;;;0.60;;
15776;SDS011;7989;51.198;6.676;2024-03-29T12:03:10;2.67;;;0.70;;
15776;SDS011;7989;51.198;6.676;2024-03-29T12:05:37;2.05;;;0.57;;
15776;SDS011;7989;51.198;6.676;2024-03-29T12:08:04;4.57;;;3.55;;
15776;SDS011;7989;51.198;6.676;2024-03-29T12:10:32;6.90;;;5.40;;
15776;SDS011;7989;51.198;6.676;2024-03-29T12:13:01;3.72;;;1.50;;
15776;SDS011;7989;51.198;6.676;2024-03-29T12:15:27;2.72;;;1.85;;
15776;SDS011;7989;51.198;6.676;2024-03-29T12:17:56;1.95;;;0.80;;
15776;SDS011;7989;51.198;6.676;2024-03-29T12:20:24;2.90;;;0.90;;
15776;SDS011;7989;51.198;6.676;2024-03-29T12:22:51;3.53;;;0.57;;
15776;SDS011;7989;51.198;6.676;2024-03-29T12:25:19;6.00;;;1.05;;
15776;SDS011;7989;51.198;6.676;2024-03-29T12:27:46;4.80;;;0.80;;
15776;SDS011;7989;51.198;6.676;2024-03-29T12:30:13;1.10;;;0.52;;
15776;SDS011;7989;51.198;6.676;2024-03-29T12:32:41;5.15;;;0.95;;
15776;SDS011;7989;51.198;6.676;2024-03-29T12:35:10;3.50;;;0.93;;
15776;SDS011;7989;51.198;6.676;2024-03-29T12:37:37;2.25;;;0.95;;
15776;SDS011;7989;51.198;6.676;2024-03-29T12:40:13;3.67;;;0.93;;
15776;SDS011;7989;51.198;6.676;2024-03-29T12:42:43;5.97;;;1.02;;
15776;SDS011;7989;51.198;6.676;2024-03-29T12:45:10;3.60;;;0.82;;
15776;SDS011;7989;51.198;6.676;2024-03-29T12:47:37;2.38;;;1.05;;
15776;SDS011;7989;51.198;6.676;2024-03-29T12:50:04;1.67;;;0.77;;
15776;SDS011;7989;51.198;6.676;2024-03-29T12:52:42;1.65;;;0.50;;
15776;SDS011;7989;51.198;6.676;2024-03-29T12:55:09;2.05;;;0.70;;
15776;SDS011;7989;51.198;6.676;2024-03-29T12:57:37;0.80;;;0.43;;
15776;SDS011;7989;51.198;6.676;2024-03-29T13:00:06;0.85;;;0.30;;
15776;SDS011;7989;51.198;6.676;2024-03-29T13:02:35;1.13;;;0.60;;
15776;SDS011;7989;51.198;6.676;2024-03-29T13:05:02;1.23;;;0.45;;
15776;SDS011;7989;51.198;6.676;2024-03-29T13:07:30;0.93;;;0.55;;
15776;SDS011;7989;51.198;6.676;2024-03-29T13:09:58;1.13;;;0.50;;
15776;SDS011;7989;51.198;6.676;2024-03-29T13:12:28;1.40;;;0.63;;
15776;SDS011;7989;51.198;6.676;2024-03-29T13:14:55;1.52;;;0.70;;
15776;SDS011;7989;51.198;6.676;2024-03-29T13:17:22;0.85;;;0.47;;
15776;SDS011;7989;51.198;6.676;2024-03-29T13:19:48;1.95;;;0.40;;
15776;SDS011;7989;51.198;6.676;2024-03-29T13:22:15;0.88;;;0.50;;
15776;SDS011;7989;51.198;6.676;2024-03-29T13:24:43;1.15;;;0.40;;
15776;SDS011;7989;51.198;6.676;2024-03-29T13:27:11;2.30;;;0.70;;
15776;SDS011;7989;51.198;6.676;2024-03-29T13:29:38;1.27;;;0.57;;
15776;SDS011;7989;51.198;6.676;2024-03-29T13:32:05;1.48;;;1.38;;
15776;SDS011;7989;51.198;6.676;2024-03-29T13:34:32;0.35;;;0.35;;
15776;SDS011;7989;51.198;6.676;2024-03-29T13:36:59;0.80;;;0.55;;
15776;SDS011;7989;51.198;6.676;2024-03-29T13:39:26;1.77;;;0.65;;
15776;SDS011;7989;51.198;6.676;2024-03-29T13:41:53;4.72;;;0.80;;
15776;SDS011;7989;51.198;6.676;2024-03-29T13:44:21;1.17;;;0.90;;
15776;SDS011;7989;51.198;6.676;2024-03-29T13:46:48;1.00;;;0.55;;
15776;SDS011;7989;51.198;6.676;2024-03-29T13:49:16;1.02;;;0.50;;
15776;SDS011;7989;51.198;6.676;2024-03-29T13:51:45;2.47;;;0.80;;
15776;SDS011;7989;51.198;6.676;2024-03-29T13:54:12;0.60;;;0.35;;
15776;SDS011;7989;51.198;6.676;2024-03-29T13:56:39;1.23;;;1.13;;
15776;SDS011;7989;51.198;6.676;2024-03-29T13:59:06;0.50;;;0.40;;
15776;SDS011;7989;51.198;6.676;2024-03-29T14:01:34;0.47;;;0.35;;
15776;SDS011;7989;51.198;6.676;2024-03-29T14:04:01;1.00;;;0.60;;
15776;SDS011;7989;51.198;6.676;2024-03-29T14:06:28;0.52;;;0.43;;
15776;SDS011;7989;51.198;6.676;2024-03-29T14:08:55;0.43;;;0.40;;
15776;SDS011;7989;51.198;6.676;2024-03-29T14:11:22;1.05;;;0.40;;
15776;SDS011;7989;51.198;6.676;2024-03-29T14:13:49;2.15;;;0.75;;
15776;SDS011;7989;51.198;6.676;2024-03-29T14:16:20;1.65;;;0.40;;
15776;SDS011;7989;51.198;6.676;2024-03-29T14:18:49;2.00;;;0.52;;
15776;SDS011;7989;51.198;6.676;2024-03-29T14:21:16;0.60;;;0.40;;
15776;SDS011;7989;51.198;6.676;2024-03-29T14:23:42;1.35;;;0.50;;
15776;SDS011;7989;51.198;6.676;2024-03-29T14:26:09;1.00;;;0.35;;
15776;SDS011;7989;51.198;6.676;2024-03-29T14:28:36;0.30;;;0.30;;
15776;SDS011;7989;51.198;6.676;2024-03-29T14:31:03;0.40;;;0.40;;
15776;SDS011;7989;51.198;6.676;2024-03-29T14:33:30;1.10;;;0.50;;
15776;SDS011;7989;51.198;6.676;2024-03-29T14:35:58;1.23;;;0.40;;
15776;SDS011;7989;51.198;6.676;2024-03-29T14:38:25;0.68;;;0.40;;
15776;SDS011;7989;51.198;6.676;2024-03-29T14:40:51;2.58;;;0.70;;
15776;SDS011;7989;51.198;6.676;2024-03-29T14:43:18;0.57;;;0.38;;
15776;SDS011;7989;51.198;6.676;2024-03-29T14:45:46;1.95;;;0.88;;
15776;SDS011;7989;51.198;6.676;2024-03-29T14:48:14;0.32;;;0.22;;
15776;SDS011;7989;51.198;6.676;2024-03-29T14:50:41;0.50;;;0.30;;
15776;SDS011;7989;51.198;6.676;2024-03-29T14:53:09;1.88;;;1.50;;
15776;SDS011;7989;51.198;6.676;2024-03-29T14:55:36;3.42;;;3.17;;
15776;SDS011;7989;51.198;6.676;2024-03-29T14:58:04;0.40;;;0.40;;
15776;SDS011;7989;51.198;6.676;2024-03-29T15:00:31;2.00;;;1.77;;
15776;SDS011;7989;51.198;6.676;2024-03-29T15:02:58;1.25;;;0.90;;